Time;durP1;ratioP1;P1;durP2;ratioP2;P2;SDS_P1;SDS_P2;PMS_P1;PMS_P2;Temp;Humidity;BMP_temperature;BMP_pressure;BME280_temperature;BME280_humidity;BME280_pressure;Samples;Min_cycle;Max_cycle;Signal;HPM_P1;HPM_P2
2021/03/06 00:01:29;;;;;;;31.95;26.98;;;;;;;;;;5048340;28;20556;-76
2021/03/06 00:03:59;;;;;;;34.92;26.98;;;;;;;;;;5052688;28;20033;-76
2021/03/06 00:06:28;;;;;;;31.10;27.88;;;;;;;;;;5045936;28;20053;-76
2021/03/06 00:08:56;;;;;;;30.40;25.50;;;;;;;;;;5022494;28;20061;-76
2021/03/06 00:11:23;;;;;;;51.85;37.97;;;;;;;;;;5034305;28;20041;-76
2021/03/06 00:13:50;;;;;;;41.47;33.47;;;;;;;;;;5028803;28;20069;-76
2021/03/06 00:16:17;;;;;;;47.92;33.03;;;;;;;;;;5035155;28;20037;-76
2021/03/06 00:18:44;;;;;;;37.92;29.52;;;;;;;;;;5039597;28;20042;-76
2021/03/06 00:21:12;;;;;;;33.17;27.83;;;;;;;;;;5024310;28;20061;-76
2021/03/06 00:23:46;;;;;;;39.28;28.92;;;;;;;;;;5034199;28;20512;-76
2021/03/06 00:26:13;;;;;;;32.58;27.95;;;;;;;;;;5017296;28;20048;-76
2021/03/06 00:28:40;;;;;;;32.65;28.90;;;;;;;;;;5015279;28;20041;-76
2021/03/06 00:31:07;;;;;;;35.95;28.75;;;;;;;;;;5033856;28;20040;-76
2021/03/06 00:33:34;;;;;;;33.13;27.30;;;;;;;;;;5025771;28;20041;-76
2021/03/06 00:36:02;;;;;;;29.70;26.10;;;;;;;;;;5030540;28;20033;-76
2021/03/06 00:38:29;;;;;;;36.97;26.63;;;;;;;;;;5046917;28;20498;-76
2021/03/06 00:40:57;;;;;;;29.77;26.63;;;;;;;;;;5032211;28;20036;-76
2021/03/06 00:43:24;;;;;;;33.20;27.40;;;;;;;;;;5040316;28;20491;-76
2021/03/06 00:45:51;;;;;;;30.98;26.88;;;;;;;;;;5028649;28;20041;-76
2021/03/06 00:48:18;;;;;;;44.15;31.75;;;;;;;;;;5052652;28;20041;-76
2021/03/06 00:50:45;;;;;;;43.47;30.25;;;;;;;;;;5023472;28;20044;-76
2021/03/06 00:53:12;;;;;;;34.58;29.25;;;;;;;;;;5028132;28;20098;-76
2021/03/06 00:55:39;;;;;;;34.58;29.33;;;;;;;;;;5051827;28;20052;-76
2021/03/06 00:58:06;;;;;;;33.92;29.10;;;;;;;;;;5044273;28;20037;-76
2021/03/06 01:00:33;;;;;;;31.33;26.40;;;;;;;;;;5032206;28;20439;-76
2021/03/06 01:03:01;;;;;;;25.02;22.50;;;;;;;;;;5048253;28;20060;-76
2021/03/06 01:05:28;;;;;;;25.58;23.05;;;;;;;;;;5047070;28;20045;-76
2021/03/06 01:07:56;;;;;;;25.50;22.52;;;;;;;;;;5020483;28;20050;-76
2021/03/06 01:10:32;;;;;;;27.70;21.67;;;;;;;;;;5027763;28;20037;-76
2021/03/06 01:12:58;;;;;;;23.15;20.45;;;;;;;;;;5030488;28;20053;-76
2021/03/06 01:15:26;;;;;;;23.35;20.92;;;;;;;;;;5030936;28;20048;-76
2021/03/06 01:17:54;;;;;;;33.72;24.30;;;;;;;;;;5027362;28;20072;-76
2021/03/06 01:20:21;;;;;;;26.92;23.85;;;;;;;;;;5022003;28;20119;-76
2021/03/06 01:22:49;;;;;;;26.30;23.58;;;;;;;;;;5028681;28;20051;-76
2021/03/06 01:25:16;;;;;;;33.63;25.55;;;;;;;;;;5048637;28;20595;-76
2021/03/06 01:27:43;;;;;;;35.45;26.90;;;;;;;;;;5047929;28;20068;-76
2021/03/06 01:30:11;;;;;;;32.05;25.88;;;;;;;;;;5026351;28;20033;-76
2021/03/06 01:32:39;;;;;;;30.70;27.38;;;;;;;;;;5028450;28;20033;-76
2021/03/06 01:35:11;;;;;;;36.92;29.63;;;;;;;;;;5046198;28;20048;-76
2021/03/06 01:37:39;;;;;;;37.55;28.20;;;;;;;;;;5029143;28;20029;-76
2021/03/06 01:40:14;;;;;;;30.00;25.63;;;;;;;;;;5040955;28;20100;-76
2021/03/06 01:42:41;;;;;;;32.47;27.70;;;;;;;;;;5028740;28;20043;-76
2021/03/06 01:45:09;;;;;;;33.25;26.75;;;;;;;;;;5033392;28;20049;-76
2021/03/06 01:47:36;;;;;;;28.00;25.25;;;;;;;;;;5046964;28;20076;-76
2021/03/06 01:50:04;;;;;;;25.65;22.95;;;;;;;;;;5046983;28;20470;-76
2021/03/06 01:52:32;;;;;;;27.27;24.38;;;;;;;;;;5011883;28;20192;-76
2021/03/06 01:54:59;;;;;;;28.00;24.67;;;;;;;;;;5045806;28;20129;-76
2021/03/06 01:57:26;;;;;;;27.00;24.20;;;;;;;;;;5047060;28;20045;-76
2021/03/06 01:59:53;;;;;;;26.45;23.95;;;;;;;;;;5030315;28;20123;-76
2021/03/06 02:02:20;;;;;;;30.73;24.67;;;;;;;;;;5045469;28;20128;-76
2021/03/06 02:04:47;;;;;;;27.20;24.42;;;;;;;;;;5050230;28;20103;-76
2021/03/06 02:07:14;;;;;;;28.30;25.45;;;;;;;;;;5026679;28;20135;-76
2021/03/06 02:09:42;;;;;;;30.90;25.77;;;;;;;;;;5025536;28;20046;-76
2021/03/06 02:12:11;;;;;;;30.27;25.70;;;;;;;;;;5025348;28;20061;-76
2021/03/06 02:14:50;;;;;;;28.50;25.42;;;;;;;;;;5012182;28;20041;-76
2021/03/06 02:17:22;;;;;;;32.67;25.73;;;;;;;;;;5023118;28;20056;-76
2021/03/06 02:19:56;;;;;;;32.40;26.65;;;;;;;;;;5048880;28;20041;-76
2021/03/06 02:22:23;;;;;;;;;;;;;;;;;;5045478;28;20060;-76
2021/03/06 02:24:50;;;;;;;30.67;25.70;;;;;;;;;;5014350;28;19975;-76
2021/03/06 02:27:17;;;;;;;34.50;25.02;;;;;;;;;;5044863;28;20127;-76
2021/03/06 02:29:44;;;;;;;28.05;24.83;;;;;;;;;;5030705;28;20029;-76
2021/03/06 02:32:16;;;;;;;39.20;26.45;;;;;;;;;;5028951;28;20033;-76
2021/03/06 02:34:50;;;;;;;27.52;24.75;;;;;;;;;;5010870;28;20042;-76
2021/03/06 02:37:21;;;;;;;38.15;28.65;;;;;;;;;;5016080;28;20053;-76
2021/03/06 02:39:49;;;;;;;34.13;29.77;;;;;;;;;;5045680;28;20037;-76
2021/03/06 02:42:17;;;;;;;36.10;28.17;;;;;;;;;;5032122;28;20059;-76
2021/03/06 02:44:45;;;;;;;34.42;30.45;;;;;;;;;;5019600;28;20095;-76
2021/03/06 02:47:13;;;;;;;33.45;30.25;;;;;;;;;;5045224;28;20497;-76
2021/03/06 02:49:43;;;;;;;33.67;30.13;;;;;;;;;;5034021;28;20454;-76
2021/03/06 02:52:10;;;;;;;37.63;28.23;;;;;;;;;;5048604;28;20068;-76
2021/03/06 02:54:37;;;;;;;33.63;30.10;;;;;;;;;;5031888;28;20041;-76
2021/03/06 02:57:04;;;;;;;37.75;29.05;;;;;;;;;;5053397;28;20413;-76
2021/03/06 02:59:46;;;;;;;29.88;26.98;;;;;;;;;;5049323;28;20481;-76
2021/03/06 03:02:17;;;;;;;31.85;28.48;;;;;;;;;;5031025;28;20032;-76
2021/03/06 03:04:47;;;;;;;40.67;30.75;;;;;;;;;;5035320;28;20061;-76
2021/03/06 03:07:25;;;;;;;35.55;29.25;;;;;;;;;;5044341;28;20045;-76
2021/03/06 03:09:54;;;;;;;34.80;28.85;;;;;;;;;;5026712;28;20033;-76
2021/03/06 03:12:25;;;;;;;31.25;27.30;;;;;;;;;;5023350;28;20430;-76
2021/03/06 03:15:11;;;;;;;33.65;26.60;;;;;;;;;;5027762;28;20497;-76
2021/03/06 03:17:40;;;;;;;27.02;24.15;;;;;;;;;;5025629;28;20052;-76
2021/03/06 03:20:08;;;;;;;34.97;27.63;;;;;;;;;;5047357;28;20083;-76
2021/03/06 03:22:38;;;;;;;30.02;26.83;;;;;;;;;;5050378;28;20043;-76
2021/03/06 03:25:07;;;;;;;38.05;30.50;;;;;;;;;;5036081;28;20043;-76
2021/03/06 03:27:36;;;;;;;30.77;27.13;;;;;;;;;;5023900;28;20433;-76
2021/03/06 03:30:06;;;;;;;32.75;27.52;;;;;;;;;;5041289;28;20068;-76
2021/03/06 03:32:34;;;;;;;34.10;27.80;;;;;;;;;;5031559;28;20057;-76
2021/03/06 03:35:02;;;;;;;41.53;28.70;;;;;;;;;;5026818;28;20045;-76
2021/03/06 03:37:30;;;;;;;32.05;26.95;;;;;;;;;;5051323;28;20119;-76
2021/03/06 03:39:58;;;;;;;30.13;26.70;;;;;;;;;;5049642;28;20094;-76
2021/03/06 03:42:25;;;;;;;32.38;27.50;;;;;;;;;;5033308;28;20098;-76
2021/03/06 03:44:52;;;;;;;35.10;29.45;;;;;;;;;;5033393;28;20052;-76
2021/03/06 03:47:20;;;;;;;33.28;29.08;;;;;;;;;;5028304;28;20111;-76
2021/03/06 03:49:47;;;;;;;31.58;28.02;;;;;;;;;;5034976;28;20033;-76
2021/03/06 03:52:14;;;;;;;32.15;28.67;;;;;;;;;;5023705;28;20038;-76
2021/03/06 03:54:41;;;;;;;30.80;26.40;;;;;;;;;;5039985;28;20044;-76
2021/03/06 03:57:09;;;;;;;30.05;27.02;;;;;;;;;;5052269;28;20045;-76
2021/03/06 03:59:36;;;;;;;29.15;26.42;;;;;;;;;;5010843;28;20037;-76
2021/03/06 04:02:04;;;;;;;34.03;29.80;;;;;;;;;;5028790;28;20045;-76
2021/03/06 04:04:31;;;;;;;30.10;26.30;;;;;;;;;;5047296;28;20045;-76
2021/03/06 04:06:59;;;;;;;27.75;25.05;;;;;;;;;;5047964;28;20044;-76
2021/03/06 04:09:27;;;;;;;26.10;22.58;;;;;;;;;;5051950;28;20079;-76
2021/03/06 04:11:54;;;;;;;25.45;22.95;;;;;;;;;;5018159;28;20131;-76
2021/03/06 04:14:21;;;;;;;25.15;22.75;;;;;;;;;;5050081;28;20052;-76
2021/03/06 04:16:48;;;;;;;26.23;23.50;;;;;;;;;;5031201;28;20124;-76
2021/03/06 04:19:16;;;;;;;27.33;24.70;;;;;;;;;;5029806;28;20034;-76
2021/03/06 04:21:43;;;;;;;27.38;23.90;;;;;;;;;;5050949;28;20044;-76
2021/03/06 04:24:10;;;;;;;29.48;26.48;;;;;;;;;;5028776;28;20448;-76
2021/03/06 04:26:49;;;;;;;19.75;17.98;;;;;;;;;;5023578;28;20044;-76
2021/03/06 04:29:23;;;;;;;10.25;10.02;;;;;;;;;;5030604;28;20060;-76
2021/03/06 04:31:50;;;;;;;14.73;13.40;;;;;;;;;;5028959;28;20044;-76
2021/03/06 04:34:17;;;;;;;10.35;9.95;;;;;;;;;;5050303;28;20533;-76
2021/03/06 04:36:44;;;;;;;11.18;10.65;;;;;;;;;;5050087;28;20102;-76
2021/03/06 04:39:12;;;;;;;9.32;9.02;;;;;;;;;;5041666;28;20087;-76
2021/03/06 04:41:39;;;;;;;10.07;9.77;;;;;;;;;;5033871;28;20393;-76
2021/03/06 04:44:07;;;;;;;14.63;13.65;;;;;;;;;;5045993;28;20083;-76
2021/03/06 04:46:35;;;;;;;10.55;9.90;;;;;;;;;;5031093;28;20033;-76
2021/03/06 04:49:03;;;;;;;10.75;10.40;;;;;;;;;;5029282;28;20091;-76
2021/03/06 04:51:30;;;;;;;7.88;7.68;;;;;;;;;;5013190;28;20379;-76
2021/03/06 04:53:57;;;;;;;11.05;10.95;;;;;;;;;;5033038;28;20079;-76
2021/03/06 04:56:25;;;;;;;5.60;5.50;;;;;;;;;;5017436;28;20385;-76
2021/03/06 04:58:52;;;;;;;10.45;10.35;;;;;;;;;;5030457;28;20056;-76
2021/03/06 05:01:19;;;;;;;5.35;5.15;;;;;;;;;;5030943;28;20345;-76
2021/03/06 05:03:46;;;;;;;16.50;16.30;;;;;;;;;;5045136;28;20491;-76
2021/03/06 05:06:13;;;;;;;10.27;10.07;;;;;;;;;;5033373;28;20044;-76
2021/03/06 05:08:40;;;;;;;17.63;17.38;;;;;;;;;;5046648;28;20095;-76
2021/03/06 05:11:08;;;;;;;18.50;18.15;;;;;;;;;;5015953;28;20037;-76
2021/03/06 05:13:35;;;;;;;16.08;15.68;;;;;;;;;;5034452;28;20080;-76
2021/03/06 05:16:02;;;;;;;19.70;19.30;;;;;;;;;;5045673;28;20037;-76
2021/03/06 05:18:30;;;;;;;21.00;20.80;;;;;;;;;;5031892;28;20112;-76
2021/03/06 05:20:58;;;;;;;20.55;20.27;;;;;;;;;;5031801;28;20092;-76
2021/03/06 05:23:26;;;;;;;21.55;21.13;;;;;;;;;;5042407;28;20041;-76
2021/03/06 05:25:53;;;;;;;23.17;22.65;;;;;;;;;;5029078;28;20052;-76
2021/03/06 05:28:21;;;;;;;19.67;19.42;;;;;;;;;;5026835;28;20073;-76
2021/03/06 05:30:48;;;;;;;19.98;19.67;;;;;;;;;;5018930;28;20060;-76
2021/03/06 05:33:16;;;;;;;9.52;9.43;;;;;;;;;;5046247;28;20094;-76
2021/03/06 05:35:43;;;;;;;11.43;11.13;;;;;;;;;;5048425;28;20478;-76
2021/03/06 05:38:10;;;;;;;16.13;15.82;;;;;;;;;;5042543;28;20738;-76
2021/03/06 05:40:44;;;;;;;7.82;7.72;;;;;;;;;;5028022;28;20064;-76
2021/03/06 05:43:12;;;;;;;15.93;15.73;;;;;;;;;;5032101;28;20497;-76
2021/03/06 05:45:39;;;;;;;18.17;17.98;;;;;;;;;;5030117;28;20052;-76
2021/03/06 05:48:07;;;;;;;19.33;19.02;;;;;;;;;;5044900;28;20045;-76
2021/03/06 05:50:34;;;;;;;20.00;19.67;;;;;;;;;;5033089;28;20469;-76
2021/03/06 05:53:02;;;;;;;16.73;16.42;;;;;;;;;;5044843;28;20481;-76
2021/03/06 05:55:29;;;;;;;15.68;15.40;;;;;;;;;;5049216;28;20092;-76
2021/03/06 05:57:56;;;;;;;12.15;11.80;;;;;;;;;;5039774;28;20364;-76
2021/03/06 06:00:24;;;;;;;14.35;14.15;;;;;;;;;;5040073;28;20046;-76
2021/03/06 06:02:58;;;;;;;8.25;8.05;;;;;;;;;;5044313;28;20355;-76
2021/03/06 06:05:25;;;;;;;4.95;4.85;;;;;;;;;;5046521;28;20095;-76
2021/03/06 06:07:54;;;;;;;5.07;4.97;;;;;;;;;;5047741;28;20119;-76
2021/03/06 06:10:22;;;;;;;7.43;7.32;;;;;;;;;;5033651;28;20114;-76
2021/03/06 06:12:49;;;;;;;5.47;5.28;;;;;;;;;;5026079;28;20110;-76
2021/03/06 06:15:19;;;;;;;9.40;9.30;;;;;;;;;;5018598;28;20051;-76
2021/03/06 06:17:46;;;;;;;10.10;9.75;;;;;;;;;;5037198;28;20182;-76
2021/03/06 06:20:15;;;;;;;9.25;9.05;;;;;;;;;;5031961;28;20051;-76
2021/03/06 06:22:43;;;;;;;9.90;9.80;;;;;;;;;;5036092;28;20047;-76
2021/03/06 06:25:10;;;;;;;10.32;10.15;;;;;;;;;;5030574;28;20045;-76
2021/03/06 06:27:37;;;;;;;3.47;3.47;;;;;;;;;;5024883;28;20080;-76
2021/03/06 06:30:12;;;;;;;3.20;3.15;;;;;;;;;;5033233;28;20053;-76
2021/03/06 06:32:46;;;;;;;3.08;3.00;;;;;;;;;;5016622;28;20473;-76
2021/03/06 06:35:15;;;;;;;3.58;3.58;;;;;;;;;;5019900;28;20540;-78
2021/03/06 06:37:55;;;;;;;2.90;2.90;;;;;;;;;;5029182;28;20044;-78
2021/03/06 06:40:23;;;;;;;3.10;3.10;;;;;;;;;;5034726;28;20049;-78
2021/03/06 06:42:50;;;;;;;3.13;3.13;;;;;;;;;;5055079;28;20119;-78
2021/03/06 06:45:18;;;;;;;2.97;2.97;;;;;;;;;;5029149;28;20073;-78
2021/03/06 06:47:49;;;;;;;3.10;3.10;;;;;;;;;;5020262;28;20140;-78
2021/03/06 06:50:30;;;;;;;3.63;3.53;;;;;;;;;;5023964;28;20045;-78
2021/03/06 06:52:57;;;;;;;3.28;3.17;;;;;;;;;;5031079;28;20045;-78
2021/03/06 06:55:35;;;;;;;7.35;6.95;;;;;;;;;;5034140;28;20045;-78
2021/03/06 06:58:02;;;;;;;10.23;9.52;;;;;;;;;;5035102;28;20088;-78
2021/03/06 07:00:32;;;;;;;4.30;4.20;;;;;;;;;;5050863;28;20533;-77
2021/03/06 07:03:06;;;;;;;3.65;3.55;;;;;;;;;;5054277;28;20048;-78
2021/03/06 07:05:33;;;;;;;4.47;4.47;;;;;;;;;;5048600;28;20053;-78
2021/03/06 07:08:01;;;;;;;4.78;4.35;;;;;;;;;;5017781;28;20056;-78
2021/03/06 07:10:35;;;;;;;3.92;3.83;;;;;;;;;;5050395;28;20449;-78
2021/03/06 07:13:12;;;;;;;3.10;3.00;;;;;;;;;;5048409;28;20064;-78
2021/03/06 07:15:39;;;;;;;3.72;3.63;;;;;;;;;;5035495;28;20059;-78
2021/03/06 07:18:08;;;;;;;2.85;2.65;;;;;;;;;;5019319;28;20045;-78
2021/03/06 07:20:36;;;;;;;2.85;2.85;;;;;;;;;;5048516;28;20102;-78
2021/03/06 07:23:22;;;;;;;3.40;3.30;;;;;;;;;;5052360;28;20448;-78
2021/03/06 07:25:53;;;;;;;2.70;2.70;;;;;;;;;;5052232;28;20040;-78
2021/03/06 07:28:22;;;;;;;3.13;3.13;;;;;;;;;;5034000;28;20424;-78
2021/03/06 07:30:49;;;;;;;2.10;2.10;;;;;;;;;;5033012;28;20033;-78
2021/03/06 07:33:18;;;;;;;2.50;2.50;;;;;;;;;;5046445;28;20052;-78
2021/03/06 07:35:46;;;;;;;4.55;4.45;;;;;;;;;;5034776;28;20099;-78
2021/03/06 07:38:17;;;;;;;2.50;2.30;;;;;;;;;;5048152;28;20102;-78
2021/03/06 07:40:52;;;;;;;2.08;2.08;;;;;;;;;;5032341;28;20136;-78
2021/03/06 07:43:33;;;;;;;2.22;2.22;;;;;;;;;;5032127;28;20537;-78
2021/03/06 07:46:01;;;;;;;2.42;2.42;;;;;;;;;;5018559;28;20493;-78
2021/03/06 07:48:37;;;;;;;3.25;3.10;;;;;;;;;;5033579;28;20037;-78
2021/03/06 07:51:05;;;;;;;;;;;;;;;;;;5052473;28;20056;-78
2021/03/06 07:53:32;;;;;;;2.55;2.55;;;;;;;;;;5047857;28;19920;-78
2021/03/06 07:56:04;;;;;;;2.22;2.22;;;;;;;;;;5034563;28;20094;-78
2021/03/06 07:58:45;;;;;;;2.90;2.83;;;;;;;;;;5035798;28;20029;-78
2021/03/06 08:01:29;;;;;;;2.88;2.88;;;;;;;;;;5047721;28;20045;-78
2021/03/06 08:03:57;;;;;;;2.95;2.85;;;;;;;;;;5038050;28;20083;-78
2021/03/06 08:06:28;;;;;;;3.05;3.05;;;;;;;;;;5030404;28;20060;-78
2021/03/06 08:08:59;;;;;;;2.83;2.67;;;;;;;;;;5049602;28;20048;-78
2021/03/06 08:11:35;;;;;;;2.40;2.40;;;;;;;;;;5033743;28;20040;-78
2021/03/06 08:14:05;;;;;;;2.33;2.33;;;;;;;;;;5031674;28;20525;-78
2021/03/06 08:16:33;;;;;;;2.50;2.50;;;;;;;;;;5032991;28;20033;-78
2021/03/06 08:19:13;;;;;;;2.40;2.40;;;;;;;;;;5049294;28;20045;-78
2021/03/06 08:21:43;;;;;;;2.72;2.67;;;;;;;;;;5046371;28;20052;-78
2021/03/06 08:24:13;;;;;;;2.60;2.50;;;;;;;;;;5050894;28;20150;-77
2021/03/06 08:26:43;;;;;;;2.40;2.30;;;;;;;;;;5026258;28;20498;-77
2021/03/06 08:29:24;;;;;;;3.70;3.60;;;;;;;;;;5039985;28;20072;-77
2021/03/06 08:32:13;;;;;;;2.60;2.50;;;;;;;;;;5051870;28;20095;-76
2021/03/06 08:34:51;;;;;;;2.30;2.30;;;;;;;;;;5029548;28;20119;-76
2021/03/06 08:39:49;;;;;;;2.55;2.55;;;;;;;;;;5052293;28;20091;-76
2021/03/06 08:42:23;;;;;;;2.53;2.42;;;;;;;;;;5045792;28;20091;-76
2021/03/06 08:44:51;;;;;;;2.33;2.33;;;;;;;;;;5031679;28;20045;-76
2021/03/06 08:47:33;;;;;;;2.63;2.63;;;;;;;;;;5014535;28;20815;-77
2021/03/06 08:50:01;;;;;;;2.60;2.60;;;;;;;;;;5045887;28;20473;-77
2021/03/06 08:52:29;;;;;;;2.42;2.42;;;;;;;;;;5051083;28;20441;-77
2021/03/06 08:54:57;;;;;;;3.35;3.35;;;;;;;;;;5046623;28;20065;-77
2021/03/06 08:57:25;;;;;;;2.75;2.75;;;;;;;;;;5031573;28;20030;-77
2021/03/06 09:00:12;;;;;;;2.42;2.42;;;;;;;;;;5051803;28;20037;-77
2021/03/06 09:02:39;;;;;;;2.80;2.80;;;;;;;;;;5047024;28;20551;-77
2021/03/06 09:05:08;;;;;;;1.70;1.70;;;;;;;;;;5049422;28;20036;-77
2021/03/06 09:07:36;;;;;;;1.30;1.30;;;;;;;;;;5034935;28;20573;-77
2021/03/06 09:10:12;;;;;;;1.40;1.40;;;;;;;;;;5044902;28;20041;-77
2021/03/06 09:12:40;;;;;;;1.40;1.40;;;;;;;;;;5051670;28;20117;-77
2021/03/06 09:15:08;;;;;;;1.30;1.30;;;;;;;;;;5025727;28;20064;-77
2021/03/06 09:17:35;;;;;;;1.30;1.30;;;;;;;;;;5038860;28;20116;-77
2021/03/06 09:20:07;;;;;;;1.67;1.67;;;;;;;;;;5050474;28;20059;-77
2021/03/06 09:22:43;;;;;;;2.70;2.70;;;;;;;;;;5027184;28;20406;-77
2021/03/06 09:25:11;;;;;;;2.13;2.10;;;;;;;;;;5045467;28;20099;-77
2021/03/06 09:27:46;;;;;;;1.40;1.40;;;;;;;;;;5030215;28;20041;-77
2021/03/06 09:30:36;;;;;;;1.80;1.80;;;;;;;;;;5028822;28;20445;-77
2021/03/06 09:33:04;;;;;;;2.35;2.25;;;;;;;;;;5036248;28;20421;-77
2021/03/06 09:35:32;;;;;;;2.20;1.70;;;;;;;;;;5031245;28;20072;-77
2021/03/06 09:38:06;;;;;;;1.55;1.55;;;;;;;;;;5028688;28;20037;-77
2021/03/06 09:40:38;;;;;;;1.80;1.80;;;;;;;;;;5050074;28;20125;-77
2021/03/06 09:43:30;;;;;;;1.30;1.30;;;;;;;;;;5029230;28;20049;-77
2021/03/06 09:45:58;;;;;;;1.50;1.50;;;;;;;;;;5028155;28;20046;-77
2021/03/06 09:48:26;;;;;;;5.35;1.40;;;;;;;;;;5020361;28;20560;-77
2021/03/06 09:50:55;;;;;;;1.45;1.45;;;;;;;;;;5028073;28;20659;-77
2021/03/06 09:53:26;;;;;;;1.45;1.45;;;;;;;;;;5049760;28;20415;-77
2021/03/06 09:56:08;;;;;;;1.30;1.30;;;;;;;;;;5028808;28;20044;-77
2021/03/06 09:58:35;;;;;;;1.60;1.60;;;;;;;;;;5045874;28;20060;-77
2021/03/06 10:01:19;;;;;;;1.60;1.60;;;;;;;;;;5047551;28;20048;-77
2021/03/06 10:03:46;;;;;;;;;;;;;;;;;;5028776;28;20366;-77
2021/03/06 10:06:14;;;;;;;1.70;1.70;;;;;;;;;;5010602;28;19986;-77
2021/03/06 10:08:57;;;;;;;1.23;1.20;;;;;;;;;;5051365;28;20041;-77
2021/03/06 10:11:29;;;;;;;1.40;1.40;;;;;;;;;;5029274;28;20055;-77
2021/03/06 10:13:56;;;;;;;1.40;1.40;;;;;;;;;;5029840;28;20045;-77
2021/03/06 10:16:23;;;;;;;2.03;2.03;;;;;;;;;;5031801;28;20045;-77
2021/03/06 10:18:51;;;;;;;1.35;1.35;;;;;;;;;;5046841;28;20448;-77
2021/03/06 10:21:20;;;;;;;1.20;1.20;;;;;;;;;;5030328;28;20045;-78
2021/03/06 10:23:48;;;;;;;1.20;1.20;;;;;;;;;;5046746;28;20076;-78
2021/03/06 10:26:23;;;;;;;1.33;1.33;;;;;;;;;;5046753;28;20041;-77
2021/03/06 10:28:54;;;;;;;2.00;2.00;;;;;;;;;;5031315;28;20049;-77
2021/03/06 10:31:32;;;;;;;1.20;1.20;;;;;;;;;;5028609;28;20044;-77
2021/03/06 10:34:14;;;;;;;1.30;1.30;;;;;;;;;;5040514;28;20053;-77
2021/03/06 10:36:42;;;;;;;1.50;1.50;;;;;;;;;;5051359;28;20043;-77
2021/03/06 10:39:19;;;;;;;1.83;1.83;;;;;;;;;;5045036;28;20075;-77
2021/03/06 10:41:55;;;;;;;1.40;1.40;;;;;;;;;;5049785;28;20075;-77
2021/03/06 10:44:22;;;;;;;1.60;1.60;;;;;;;;;;5031309;28;20049;-77
2021/03/06 10:46:59;;;;;;;1.40;1.40;;;;;;;;;;5025258;28;20099;-77
2021/03/06 10:49:37;;;;;;;1.58;1.58;;;;;;;;;;5033484;28;20037;-77
2021/03/06 10:52:05;;;;;;;1.70;1.70;;;;;;;;;;5047409;28;20060;-76
2021/03/06 10:54:51;;;;;;;1.80;1.80;;;;;;;;;;5044925;28;20139;-76
2021/03/06 10:57:18;;;;;;;1.55;1.55;;;;;;;;;;5043439;28;20061;-76
2021/03/06 10:59:45;;;;;;;2.10;2.00;;;;;;;;;;5046394;28;20056;-76
2021/03/06 11:02:32;;;;;;;1.80;1.80;;;;;;;;;;5051415;28;20432;-77
2021/03/06 11:05:19;;;;;;;1.85;1.85;;;;;;;;;;5020677;28;20107;-77
2021/03/06 11:07:46;;;;;;;2.28;2.28;;;;;;;;;;5031498;28;20045;-77
2021/03/06 11:10:14;;;;;;;2.30;2.30;;;;;;;;;;5049374;28;20041;-77
2021/03/06 11:12:50;;;;;;;1.98;1.98;;;;;;;;;;5051063;28;20255;-77
2021/03/06 11:15:18;;;;;;;1.98;1.98;;;;;;;;;;5047702;28;20048;-77
2021/03/06 11:17:47;;;;;;;2.13;1.92;;;;;;;;;;5052397;28;20069;-77
2021/03/06 11:20:15;;;;;;;1.80;1.80;;;;;;;;;;5049174;28;20033;-77
2021/03/06 11:22:42;;;;;;;3.13;1.45;;;;;;;;;;5048686;28;20052;-77
2021/03/06 11:25:11;;;;;;;1.60;1.50;;;;;;;;;;5053900;28;20064;-77
2021/03/06 11:27:49;;;;;;;1.52;1.52;;;;;;;;;;5048421;28;20114;-77
2021/03/06 11:30:17;;;;;;;1.50;1.50;;;;;;;;;;5034253;28;20045;-77
2021/03/06 11:32:45;;;;;;;2.33;2.22;;;;;;;;;;5033055;28;20041;-77
2021/03/06 11:35:13;;;;;;;1.40;1.40;;;;;;;;;;5046180;28;20041;-77
2021/03/06 11:37:40;;;;;;;1.60;1.60;;;;;;;;;;5054223;28;20029;-77
2021/03/06 11:40:07;;;;;;;1.90;1.90;;;;;;;;;;5031383;28;20045;-77
2021/03/06 11:42:35;;;;;;;2.15;2.15;;;;;;;;;;5050246;28;20045;-77
2021/03/06 11:45:02;;;;;;;2.40;2.40;;;;;;;;;;5031766;28;20509;-77
2021/03/06 11:47:29;;;;;;;1.60;1.60;;;;;;;;;;5047681;28;20128;-77
2021/03/06 11:49:58;;;;;;;2.03;2.03;;;;;;;;;;5052720;28;20427;-77
2021/03/06 11:52:25;;;;;;;1.90;1.80;;;;;;;;;;5048948;28;20049;-77
2021/03/06 11:54:52;;;;;;;1.83;1.83;;;;;;;;;;5031438;28;20047;-77
2021/03/06 11:57:25;;;;;;;1.75;1.75;;;;;;;;;;5035243;28;20394;-77
2021/03/06 11:59:53;;;;;;;2.17;1.98;;;;;;;;;;5028634;28;20044;-77
2021/03/06 12:02:20;;;;;;;1.65;1.65;;;;;;;;;;5051111;28;20045;-77
2021/03/06 12:04:48;;;;;;;1.77;1.77;;;;;;;;;;5049625;28;20045;-77
2021/03/06 12:07:15;;;;;;;2.10;2.10;;;;;;;;;;5032343;28;20041;-77
2021/03/06 12:09:42;;;;;;;2.40;2.40;;;;;;;;;;5002239;28;20087;-77
2021/03/06 12:12:09;;;;;;;2.30;2.20;;;;;;;;;;5029388;28;20064;-77
2021/03/06 12:14:36;;;;;;;2.83;2.78;;;;;;;;;;5049978;28;20041;-77
2021/03/06 12:17:03;;;;;;;2.15;2.15;;;;;;;;;;5033047;28;20041;-77
2021/03/06 12:19:31;;;;;;;1.70;1.70;;;;;;;;;;5047414;28;20037;-77
2021/03/06 12:21:58;;;;;;;2.20;2.10;;;;;;;;;;5051556;28;20065;-77
2021/03/06 12:24:25;;;;;;;11.68;3.03;;;;;;;;;;5046407;28;20486;-78
2021/03/06 12:26:52;;;;;;;1.63;1.60;;;;;;;;;;5049587;28;20041;-79
2021/03/06 12:29:19;;;;;;;2.58;2.58;;;;;;;;;;5048243;28;20041;-79
2021/03/06 12:31:46;;;;;;;2.95;2.85;;;;;;;;;;5025228;28;20061;-79
2021/03/06 12:34:14;;;;;;;2.60;2.60;;;;;;;;;;5052501;28;20544;-79
2021/03/06 12:36:42;;;;;;;2.63;2.63;;;;;;;;;;5047828;28;20397;-79
2021/03/06 12:39:09;;;;;;;2.83;2.83;;;;;;;;;;5048201;28;20124;-79
2021/03/06 12:41:36;;;;;;;3.20;3.20;;;;;;;;;;5047876;28;20056;-79
2021/03/06 12:44:04;;;;;;;3.13;3.03;;;;;;;;;;5044766;28;20080;-79
2021/03/06 12:46:32;;;;;;;2.88;2.80;;;;;;;;;;5033998;28;20120;-79
2021/03/06 12:48:59;;;;;;;2.85;2.75;;;;;;;;;;5030711;28;20502;-79
2021/03/06 12:51:26;;;;;;;4.00;3.90;;;;;;;;;;5008597;28;20864;-79
2021/03/06 12:53:53;;;;;;;3.60;3.42;;;;;;;;;;5033475;28;20132;-79
2021/03/06 12:56:20;;;;;;;3.35;3.25;;;;;;;;;;5024702;28;20048;-79
2021/03/06 12:58:47;;;;;;;2.80;2.60;;;;;;;;;;5028040;28;20119;-79
2021/03/06 13:01:14;;;;;;;3.85;3.50;;;;;;;;;;5047831;28;20040;-79
2021/03/06 13:03:41;;;;;;;5.10;4.32;;;;;;;;;;5045098;28;20049;-79
2021/03/06 13:06:08;;;;;;;3.50;3.33;;;;;;;;;;5051782;28;20076;-79
2021/03/06 13:08:35;;;;;;;3.15;3.05;;;;;;;;;;5041023;28;20103;-79
2021/03/06 13:11:02;;;;;;;3.25;3.05;;;;;;;;;;5039243;28;20037;-79
2021/03/06 13:13:29;;;;;;;6.35;6.15;;;;;;;;;;5016383;28;20041;-79
2021/03/06 13:15:56;;;;;;;3.42;3.22;;;;;;;;;;5046357;28;20029;-79
2021/03/06 13:18:23;;;;;;;3.63;2.92;;;;;;;;;;5031406;28;20045;-79
2021/03/06 13:20:50;;;;;;;3.63;3.33;;;;;;;;;;5038410;28;20081;-79
2021/03/06 13:23:18;;;;;;;3.03;2.88;;;;;;;;;;5038057;28;20072;-79
2021/03/06 13:25:45;;;;;;;3.72;3.58;;;;;;;;;;5047835;28;20543;-79
2021/03/06 13:28:11;;;;;;;5.10;3.03;;;;;;;;;;5042281;28;20073;-79
2021/03/06 13:30:39;;;;;;;3.30;3.30;;;;;;;;;;5051100;28;20087;-79
2021/03/06 13:33:18;;;;;;;3.10;3.00;;;;;;;;;;5015039;28;20041;-79
2021/03/06 13:35:45;;;;;;;3.30;3.30;;;;;;;;;;5045384;28;20038;-79
2021/03/06 13:38:11;;;;;;;3.15;2.92;;;;;;;;;;5031033;28;20036;-79
2021/03/06 13:40:38;;;;;;;4.25;3.10;;;;;;;;;;5045232;28;20334;-79
2021/03/06 13:43:05;;;;;;;3.85;3.65;;;;;;;;;;5049578;28;20049;-79
2021/03/06 13:45:33;;;;;;;4.50;3.40;;;;;;;;;;5047632;28;20091;-79
2021/03/06 13:48:00;;;;;;;3.35;3.25;;;;;;;;;;5028101;28;20087;-79
2021/03/06 13:50:30;;;;;;;4.35;4.13;;;;;;;;;;5033712;28;20504;-79
2021/03/06 13:52:59;;;;;;;4.07;3.78;;;;;;;;;;5043590;28;20043;-79
2021/03/06 13:55:26;;;;;;;3.05;2.95;;;;;;;;;;5048880;28;20033;-79
2021/03/06 13:57:52;;;;;;;7.63;4.20;;;;;;;;;;5036759;28;20461;-79
2021/03/06 14:00:20;;;;;;;3.22;3.05;;;;;;;;;;5042949;28;20076;-79
2021/03/06 14:02:46;;;;;;;3.63;3.42;;;;;;;;;;5023223;28;20103;-78
2021/03/06 14:05:14;;;;;;;3.38;3.28;;;;;;;;;;5039435;28;20069;-79
2021/03/06 14:07:40;;;;;;;3.50;3.20;;;;;;;;;;5027085;28;21308;-79
2021/03/06 14:10:08;;;;;;;3.40;3.15;;;;;;;;;;4998442;28;20080;-79
2021/03/06 14:12:35;;;;;;;5.85;3.90;;;;;;;;;;5040398;28;20556;-79
2021/03/06 14:15:03;;;;;;;4.20;3.80;;;;;;;;;;5014832;28;20045;-79
2021/03/06 14:17:30;;;;;;;3.55;3.45;;;;;;;;;;5043587;28;20045;-79
2021/03/06 14:19:59;;;;;;;4.50;4.20;;;;;;;;;;5043835;28;20037;-79
2021/03/06 14:22:26;;;;;;;4.35;4.03;;;;;;;;;;5047466;28;20037;-79
2021/03/06 14:24:53;;;;;;;3.58;3.38;;;;;;;;;;5040270;28;20046;-79
2021/03/06 14:27:20;;;;;;;3.08;2.97;;;;;;;;;;5035707;28;20074;-80
2021/03/06 14:29:54;;;;;;;4.43;4.13;;;;;;;;;;5028643;28;20551;-79
2021/03/06 14:32:21;;;;;;;3.55;3.25;;;;;;;;;;5007444;28;20545;-79
2021/03/06 14:34:48;;;;;;;6.82;4.07;;;;;;;;;;5047694;28;20083;-79
2021/03/06 14:37:15;;;;;;;2.80;2.70;;;;;;;;;;5042732;28;20025;-79
2021/03/06 14:39:44;;;;;;;2.38;2.38;;;;;;;;;;5032150;28;20047;-79
2021/03/06 14:42:12;;;;;;;2.83;2.63;;;;;;;;;;5030715;28;20037;-79
2021/03/06 14:44:39;;;;;;;3.17;2.78;;;;;;;;;;5046434;28;20057;-79
2021/03/06 14:47:06;;;;;;;3.08;2.97;;;;;;;;;;5052494;28;20044;-79
2021/03/06 14:49:34;;;;;;;3.70;3.50;;;;;;;;;;5031356;28;20037;-79